createdAt,value
2023-05-23T00:00:59.256Z,100211.84
2023-05-23T00:02:02.595Z,100205.00
2023-05-23T00:03:06.544Z,100207.09
2023-05-23T00:04:11.238Z,100207.28
2023-05-23T00:05:15.996Z,100203.16
2023-05-23T00:06:22.190Z,100196.44
2023-05-23T00:07:26.805Z,100205.88
2023-05-23T00:08:30.072Z,100203.16
2023-05-23T00:09:33.418Z,100201.69
2023-05-23T00:10:36.909Z,100195.22
2023-05-23T00:11:40.028Z,100192.31
2023-05-23T00:12:43.148Z,100190.25
2023-05-23T00:13:47.149Z,100196.09
2023-05-23T00:14:51.354Z,100189.84
2023-05-23T00:15:55.102Z,100186.91
2023-05-23T00:16:58.885Z,100187.75
2023-05-23T00:18:02.192Z,100182.78
2023-05-23T00:19:05.968Z,100178.81
2023-05-23T00:20:11.879Z,100180.47
2023-05-23T00:21:15.444Z,100174.44
2023-05-23T00:22:18.845Z,100176.94
2023-05-23T00:23:22.999Z,100167.97
2023-05-23T00:24:26.461Z,100169.00
2023-05-23T00:25:34.814Z,100180.69
2023-05-23T00:26:38.322Z,100176.56
2023-05-23T00:27:41.270Z,100173.22
2023-05-23T00:28:44.751Z,100169.88
2023-05-23T00:29:47.871Z,100170.91
2023-05-23T00:30:51.252Z,100170.06
2023-05-23T00:31:54.638Z,100163.63
2023-05-23T00:32:58.178Z,100169.03
2023-05-23T00:34:01.761Z,100179.88
2023-05-23T00:35:05.643Z,100178.22
2023-05-23T00:36:09.329Z,100177.59
2023-05-23T00:37:12.798Z,100166.16
2023-05-23T00:38:16.489Z,100165.53
2023-05-23T00:39:20.437Z,100163.44
2023-05-23T00:40:24.317Z,100165.06
2023-05-23T00:41:27.846Z,100166.16
2023-05-23T00:42:33.504Z,100172.81
2023-05-23T00:43:37.364Z,100166.56
2023-05-23T00:44:40.910Z,100156.75
2023-05-23T00:45:44.330Z,100159.47
2023-05-23T00:46:49.715Z,100156.16
2023-05-23T00:47:53.317Z,100156.38
2023-05-23T00:48:56.631Z,100159.91
2023-05-23T00:50:00.291Z,100154.50
2023-05-23T00:51:04.295Z,100166.19
2023-05-23T00:52:07.972Z,100164.28
2023-05-23T00:53:11.469Z,100162.00
2023-05-23T00:54:14.855Z,100163.66
2023-05-23T00:55:18.514Z,100162.63
2023-05-23T00:56:22.236Z,100165.75
2023-05-23T00:57:25.586Z,100160.78
2023-05-23T00:58:29.171Z,100164.53
2023-05-23T00:59:32.358Z,100158.50
2023-05-23T01:00:36.835Z,100164.56
2023-05-23T01:01:41.195Z,100158.75
2023-05-23T01:02:48.443Z,100169.78
2023-05-23T01:03:51.742Z,100167.31
2023-05-23T01:04:56.072Z,100163.34
2023-05-23T01:05:59.506Z,100168.38
2023-05-23T01:07:03.287Z,100170.91
2023-05-23T01:08:07.605Z,100177.16
2023-05-23T01:09:11.307Z,100176.53
2023-05-23T01:10:15.264Z,100158.84
2023-05-23T01:11:31.194Z,100160.09
2023-05-23T01:12:34.207Z,100164.66
2023-05-23T01:13:43.146Z,100163.22
2023-05-23T01:14:50.269Z,100163.44
2023-05-23T01:16:14.168Z,100167.19
2023-05-23T01:17:29.618Z,100165.09
2023-05-23T01:18:42.289Z,100162.59
2023-05-23T01:20:01.736Z,100164.28
2023-05-23T01:21:10.308Z,100164.06
2023-05-23T01:22:22.397Z,100160.53
2023-05-23T01:23:45.468Z,100162.59
2023-05-23T01:24:55.727Z,100153.84
2023-05-23T01:26:17.794Z,100154.91
2023-05-23T01:27:42.825Z,100157.38
2023-05-23T01:28:51.232Z,100155.94
2023-05-23T01:29:57.350Z,100154.72
2023-05-23T01:31:01.314Z,100158.69
2023-05-23T01:32:05.176Z,100160.56
2023-05-23T01:33:09.280Z,100155.38
2023-05-23T01:34:14.206Z,100149.13
2023-05-23T01:35:23.401Z,100158.28
2023-05-23T01:36:26.349Z,100160.59
2023-05-23T01:37:30.386Z,100152.88
2023-05-23T01:38:34.120Z,100151.44
2023-05-23T01:39:38.277Z,100148.31
2023-05-23T01:40:41.743Z,100146.03
2023-05-23T01:41:46.083Z,100143.75
2023-05-23T01:42:49.216Z,100139.34
2023-05-23T01:43:52.458Z,100131.03
2023-05-23T01:44:59.917Z,100136.44
2023-05-23T01:46:03.475Z,100147.28
2023-05-23T01:47:08.244Z,100131.88
2023-05-23T01:48:12.779Z,100129.16
2023-05-23T01:49:16.589Z,100138.13
2023-05-23T01:50:20.313Z,100139.78
2023-05-23T01:51:24.315Z,100136.25
2023-05-23T01:52:28.534Z,100138.31
2023-05-23T01:53:32.492Z,100141.03
2023-05-23T01:54:35.947Z,100136.66
2023-05-23T01:55:40.283Z,100142.50
2023-05-23T01:56:44.586Z,100146.25
2023-05-23T01:57:52.193Z,100138.13
2023-05-23T01:58:55.753Z,100133.16
2023-05-23T01:59:59.233Z,100133.53
2023-05-23T02:01:03.620Z,100133.97
2023-05-23T02:02:07.485Z,100122.72
2023-05-23T02:03:10.938Z,100130.22
2023-05-23T02:04:14.995Z,100126.28
2023-05-23T02:05:18.437Z,100129.63
2023-05-23T02:06:21.938Z,100124.00
2023-05-23T02:07:25.360Z,100119.19
2023-05-23T02:08:28.731Z,100125.22
2023-05-23T02:09:32.493Z,100121.09
2023-05-23T02:10:35.602Z,100130.22
2023-05-23T02:11:39.232Z,100125.22
2023-05-23T02:12:42.511Z,100124.41
2023-05-23T02:13:46.126Z,100124.41
2023-05-23T02:14:53.142Z,100124.41
2023-05-23T02:15:56.140Z,100129.59
2023-05-23T02:17:00.960Z,100124.81
2023-05-23T02:18:05.173Z,100128.56
2023-05-23T02:19:08.908Z,100124.81
2023-05-23T02:20:12.415Z,100117.53
2023-05-23T02:21:15.973Z,100120.25
2023-05-23T02:22:19.564Z,100125.03
2023-05-23T02:23:24.045Z,100125.66
2023-05-23T02:24:27.152Z,100122.97
2023-05-23T02:25:30.401Z,100122.72
2023-05-23T02:26:33.670Z,100117.31
2023-05-23T02:27:37.002Z,100115.44
2023-05-23T02:28:40.636Z,100121.06
2023-05-23T02:29:44.645Z,100120.22
2023-05-23T02:30:48.053Z,100118.16
2023-05-23T02:31:51.676Z,100116.09
2023-05-23T02:32:55.272Z,100116.09
2023-05-23T02:33:59.172Z,100116.28
2023-05-23T02:35:02.766Z,100119.63
2023-05-23T02:36:06.434Z,100119.00
2023-05-23T02:37:09.585Z,100118.78
2023-05-23T02:38:14.917Z,100125.25
2023-05-23T02:39:18.768Z,100127.94
2023-05-23T02:40:23.073Z,100132.72
2023-05-23T02:41:26.302Z,100122.72
2023-05-23T02:42:29.649Z,100130.66
2023-05-23T02:43:32.687Z,100130.00
2023-05-23T02:44:36.109Z,100129.19
2023-05-23T02:45:40.001Z,100126.47
2023-05-23T02:46:43.622Z,100124.59
2023-05-23T02:47:46.762Z,100110.66
2023-05-23T02:48:50.060Z,100117.75
2023-05-23T02:49:53.118Z,100116.09
2023-05-23T02:50:56.553Z,100112.53
2023-05-23T02:51:59.475Z,100111.06
2023-05-23T02:53:02.616Z,100117.31
2023-05-23T02:54:06.002Z,100115.88
2023-05-23T02:55:12.936Z,100118.38
2023-05-23T02:56:22.723Z,100116.91
2023-05-23T02:57:26.167Z,100104.44
2023-05-23T02:58:30.415Z,100118.16
2023-05-23T02:59:34.538Z,100106.94
2023-05-23T03:00:37.729Z,100104.84
2023-05-23T03:01:41.527Z,100117.34
2023-05-23T03:02:45.321Z,100107.34
2023-05-23T03:06:23.769Z,100117.13
2023-05-23T03:07:28.781Z,100110.88
2023-05-23T03:08:32.736Z,100109.22
2023-05-23T03:09:36.428Z,100116.28
2023-05-23T03:10:39.451Z,100114.84
2023-05-23T03:11:42.616Z,100109.44
2023-05-23T03:12:45.972Z,100107.34
2023-05-23T03:13:51.113Z,100106.94
2023-05-23T03:14:54.553Z,100115.66
2023-05-23T03:15:57.884Z,100114.00
2023-05-23T03:17:01.213Z,100115.66
2023-05-23T03:18:06.737Z,100114.63
2023-05-23T03:19:10.063Z,100109.84
2023-05-23T03:20:13.383Z,100123.38
2023-05-23T03:21:16.394Z,100121.25
2023-05-23T03:22:19.470Z,100114.22
2023-05-23T03:23:22.729Z,100120.22
2023-05-23T03:24:26.536Z,100125.88
2023-05-23T03:25:29.579Z,100121.06
2023-05-23T03:26:32.940Z,100118.16
2023-05-23T03:27:36.058Z,100117.13
2023-05-23T03:28:38.979Z,100116.06
2023-05-23T03:29:42.288Z,100119.81
2023-05-23T03:30:46.958Z,100122.31
2023-05-23T03:31:50.195Z,100127.72
2023-05-23T03:32:54.360Z,100125.25
2023-05-23T03:33:57.606Z,100126.47
2023-05-23T03:35:00.750Z,100126.06
2023-05-23T03:36:04.007Z,100120.88
2023-05-23T03:37:07.193Z,100114.00
2023-05-23T03:38:10.145Z,100121.50
2023-05-23T03:39:13.762Z,100116.47
2023-05-23T03:40:16.965Z,100117.75
2023-05-23T03:41:22.226Z,100122.31
2023-05-23T03:42:25.966Z,100116.09
2023-05-23T03:43:29.091Z,100113.81
2023-05-23T03:44:32.654Z,100116.06
2023-05-23T03:45:36.126Z,100116.06
2023-05-23T03:46:43.945Z,100112.78
2023-05-23T03:47:47.067Z,100104.03
2023-05-23T03:48:50.482Z,100106.28
2023-05-23T03:49:53.735Z,100114.41
2023-05-23T03:50:57.016Z,100110.66
2023-05-23T03:52:00.899Z,100112.34
2023-05-23T03:53:05.411Z,100109.44
2023-05-23T03:54:08.712Z,100111.09
2023-05-23T03:55:12.146Z,100104.84
2023-05-23T03:56:15.459Z,100107.75
2023-05-23T03:57:18.799Z,100113.59
2023-05-23T03:58:22.183Z,100108.19
2023-05-23T03:59:28.575Z,100112.78
2023-05-23T04:00:32.043Z,100110.25
2023-05-23T04:01:37.076Z,100113.78
2023-05-23T04:02:41.066Z,100115.69
2023-05-23T04:03:44.681Z,100113.56
2023-05-23T04:04:47.912Z,100116.06
2023-05-23T04:05:51.614Z,100115.66
2023-05-23T04:06:54.807Z,100116.28
2023-05-23T04:08:02.002Z,100117.28
2023-05-23T04:09:06.921Z,100116.47
2023-05-23T04:10:14.643Z,100118.53
2023-05-23T04:11:18.626Z,100111.44
2023-05-23T04:12:22.633Z,100119.56
2023-05-23T04:13:26.851Z,100124.56
2023-05-23T04:14:30.206Z,100109.78
2023-05-23T04:15:34.803Z,100117.72
2023-05-23T04:16:45.295Z,100122.09
2023-05-23T04:17:49.467Z,100114.16
2023-05-23T04:18:52.757Z,100111.28
2023-05-23T04:19:56.127Z,100118.31
2023-05-23T04:20:59.591Z,100114.59
2023-05-23T04:22:02.771Z,100109.63
2023-05-23T04:23:06.076Z,100107.31
2023-05-23T04:24:12.902Z,100110.66
2023-05-23T04:25:19.276Z,100108.56
2023-05-23T04:26:43.713Z,100115.66
2023-05-23T04:27:47.923Z,100108.19
2023-05-23T04:28:54.883Z,100109.00
2023-05-23T04:29:59.183Z,100114.19
2023-05-23T04:31:04.062Z,100113.16
2023-05-23T04:32:11.918Z,100112.75
2023-05-23T04:33:15.070Z,100103.59
2023-05-23T04:34:18.785Z,100097.16
2023-05-23T04:35:22.048Z,100098.81
2023-05-23T04:36:26.249Z,100089.44
2023-05-23T04:37:33.489Z,100091.56
2023-05-23T04:38:38.989Z,100095.50
2023-05-23T04:39:42.365Z,100097.78
2023-05-23T04:41:00.519Z,100094.03
2023-05-23T04:42:45.400Z,100093.00
2023-05-23T04:44:06.809Z,100095.69
2023-05-23T04:45:15.863Z,100095.69
2023-05-23T04:46:32.945Z,100093.00
2023-05-23T04:47:49.466Z,100096.53
2023-05-23T04:49:09.900Z,100101.53
2023-05-23T04:50:13.913Z,100098.41
2023-05-23T04:51:17.603Z,100105.06
2023-05-23T04:52:28.912Z,100104.44
2023-05-23T04:53:32.390Z,100096.75
2023-05-23T04:54:37.132Z,100098.81
2023-05-23T04:55:42.670Z,100099.84
2023-05-23T04:56:50.966Z,100097.56
2023-05-23T04:57:57.315Z,100100.69
2023-05-23T04:59:00.717Z,100099.84
2023-05-23T05:00:10.926Z,100098.34
2023-05-23T05:01:14.966Z,100099.72
2023-05-23T05:02:18.438Z,100099.69
2023-05-23T05:03:21.525Z,100100.50
2023-05-23T05:04:25.015Z,100098.81
2023-05-23T05:05:28.615Z,100104.81
2023-05-23T05:06:32.162Z,100108.38
2023-05-23T05:07:36.347Z,100113.75
2023-05-23T05:08:44.346Z,100098.41
2023-05-23T05:09:48.019Z,100114.22
2023-05-23T05:10:51.735Z,100105.50
2023-05-23T05:11:59.968Z,100106.75
2023-05-23T05:13:03.812Z,100099.28
2023-05-23T05:14:16.184Z,100109.28
2023-05-23T05:15:20.759Z,100113.44
2023-05-23T05:16:28.826Z,100115.31
2023-05-23T05:17:37.389Z,100117.81
2023-05-23T05:18:44.316Z,100119.66
2023-05-23T05:19:47.395Z,100118.84
2023-05-23T05:20:51.271Z,100117.41
2023-05-23T05:21:54.771Z,100116.31
2023-05-23T05:22:58.554Z,100120.06
2023-05-23T05:24:02.629Z,100116.25
2023-05-23T05:25:08.167Z,100110.56
2023-05-23T05:26:11.271Z,100113.25
2023-05-23T05:27:14.782Z,100118.22
2023-05-23T05:28:18.334Z,100121.88
2023-05-23T05:29:27.259Z,100127.06
2023-05-23T05:30:31.181Z,100125.66
2023-05-23T05:31:38.247Z,100128.59
2023-05-23T05:32:43.125Z,100127.94
2023-05-23T05:33:47.244Z,100123.50
2023-05-23T05:34:52.132Z,100127.97
2023-05-23T05:35:55.175Z,100130.53
2023-05-23T05:36:58.611Z,100125.03
2023-05-23T05:38:05.309Z,100116.94
2023-05-23T05:39:08.204Z,100124.59
2023-05-23T05:40:12.929Z,100111.72
2023-05-23T05:41:18.863Z,100117.13
2023-05-23T05:42:25.283Z,100114.28
2023-05-23T05:43:29.800Z,100116.19
2023-05-23T05:44:33.284Z,100122.25
2023-05-23T05:45:36.749Z,100115.00
2023-05-23T05:46:40.504Z,100117.69
2023-05-23T05:47:44.569Z,100126.88
2023-05-23T05:48:47.981Z,100121.88
2023-05-23T05:49:53.518Z,100123.97
2023-05-23T05:50:57.279Z,100120.06
2023-05-23T05:52:01.095Z,100126.88
2023-05-23T05:53:04.922Z,100123.94
2023-05-23T05:54:08.627Z,100116.06
2023-05-23T05:55:12.106Z,100117.00
2023-05-23T05:56:19.731Z,100116.81
2023-05-23T05:57:24.684Z,100115.38
2023-05-23T05:58:27.972Z,100124.97
2023-05-23T05:59:35.349Z,100115.84
2023-05-23T06:00:43.418Z,100118.56
2023-05-23T06:01:47.033Z,100126.06
2023-05-23T06:02:58.396Z,100123.53
2023-05-23T06:04:17.862Z,100115.69
2023-05-23T06:05:21.348Z,100127.56
2023-05-23T06:06:25.327Z,100129.44
2023-05-23T06:07:29.720Z,100137.19
2023-05-23T06:08:32.720Z,100138.59
2023-05-23T06:09:36.656Z,100130.50
2023-05-23T06:10:40.688Z,100137.22
2023-05-23T06:11:44.658Z,100126.63
2023-05-23T06:12:47.877Z,100126.41
2023-05-23T06:13:51.105Z,100126.22
2023-05-23T06:14:55.386Z,100127.25
2023-05-23T06:15:59.337Z,100136.38
2023-05-23T06:17:04.155Z,100139.47
2023-05-23T06:18:08.015Z,100135.53
2023-05-23T06:19:13.027Z,100134.31
2023-05-23T06:20:17.082Z,100140.34
2023-05-23T06:21:22.976Z,100140.53
2023-05-23T06:22:27.907Z,100131.41
2023-05-23T06:23:31.128Z,100135.59
2023-05-23T06:24:35.072Z,100135.84
2023-05-23T06:25:39.833Z,100125.03
2023-05-23T06:26:43.077Z,100128.56
2023-05-23T06:27:46.869Z,100127.75
2023-05-23T06:28:50.421Z,100138.75
2023-05-23T06:29:53.921Z,100137.69
2023-05-23T06:30:58.622Z,100135.63
2023-05-23T06:32:02.524Z,100141.06
2023-05-23T06:33:06.560Z,100141.88
2023-05-23T06:34:10.377Z,100147.28
2023-05-23T06:35:13.977Z,100154.16
2023-05-23T06:36:17.628Z,100151.00
2023-05-23T06:37:21.019Z,100156.03
2023-05-23T06:38:24.345Z,100148.50
2023-05-23T06:39:27.930Z,100148.50
2023-05-23T06:40:31.625Z,100156.03
2023-05-23T06:41:35.081Z,100160.16
2023-05-23T06:42:38.651Z,100159.34
2023-05-23T06:44:04.748Z,100159.97
2023-05-23T06:45:08.913Z,100154.75
2023-05-23T06:46:13.119Z,100149.97
2023-05-23T06:47:17.163Z,100147.72
2023-05-23T06:48:20.301Z,100147.09
2023-05-23T06:49:25.624Z,100151.88
2023-05-23T06:50:29.197Z,100151.44
2023-05-23T06:51:33.532Z,100144.78
2023-05-23T06:52:37.289Z,100152.69
2023-05-23T06:53:41.310Z,100151.00
2023-05-23T06:54:44.689Z,100151.38
2023-05-23T06:55:48.340Z,100159.91
2023-05-23T06:56:54.865Z,100142.88
2023-05-23T06:57:58.345Z,100141.03
2023-05-23T06:59:01.649Z,100140.44
2023-05-23T07:00:05.979Z,100145.00
2023-05-23T07:01:18.224Z,100147.06
2023-05-23T07:02:24.772Z,100150.00
2023-05-23T07:03:28.525Z,100148.97
2023-05-23T07:04:37.239Z,100156.03
2023-05-23T07:05:46.480Z,100150.00
2023-05-23T07:06:53.663Z,100156.63
2023-05-23T07:07:57.590Z,100160.69
2023-05-23T07:09:01.602Z,100149.88
2023-05-23T07:10:07.590Z,100155.50
2023-05-23T07:11:10.914Z,100150.78
2023-05-23T07:12:17.289Z,100151.31
2023-05-23T07:13:23.342Z,100153.97
2023-05-23T07:14:27.206Z,100149.97
2023-05-23T07:15:30.298Z,100149.16
2023-05-23T07:16:45.881Z,100158.50
2023-05-23T07:17:49.738Z,100160.16
2023-05-23T07:18:53.427Z,100159.88
2023-05-23T07:19:56.986Z,100159.25
2023-05-23T07:21:00.833Z,100158.06
2023-05-23T07:22:04.448Z,100165.59
2023-05-23T07:23:09.142Z,100174.06
2023-05-23T07:24:12.534Z,100162.13
2023-05-23T07:25:16.127Z,100169.25
2023-05-23T07:26:19.350Z,100176.59
2023-05-23T07:27:30.643Z,100175.63
2023-05-23T07:28:35.005Z,100167.03
2023-05-23T07:29:38.227Z,100176.22
2023-05-23T07:30:44.809Z,100178.94
2023-05-23T07:31:48.251Z,100176.66
2023-05-23T07:32:53.417Z,100180.78
2023-05-23T07:33:57.324Z,100181.13
2023-05-23T07:35:10.359Z,100182.53
2023-05-23T07:36:13.738Z,100178.97
2023-05-23T07:37:16.947Z,100180.81
2023-05-23T07:38:22.092Z,100180.56
2023-05-23T07:39:26.445Z,100185.63
2023-05-23T07:40:30.123Z,100185.84
2023-05-23T07:41:33.450Z,100187.72
2023-05-23T07:42:37.359Z,100186.44
2023-05-23T07:43:41.584Z,100183.28
2023-05-23T07:44:45.380Z,100176.44
2023-05-23T07:45:49.289Z,100189.84
2023-05-23T07:46:53.209Z,100186.50
2023-05-23T07:47:58.006Z,100190.66
2023-05-23T07:49:01.870Z,100196.59
2023-05-23T07:50:06.090Z,100188.88
2023-05-23T07:51:09.528Z,100198.47
2023-05-23T07:52:13.034Z,100193.88
2023-05-23T07:53:17.327Z,100198.25
2023-05-23T07:54:20.426Z,100191.97
2023-05-23T07:55:26.328Z,100199.06
2023-05-23T07:56:32.082Z,100195.75
2023-05-23T07:57:35.229Z,100201.19
2023-05-23T07:58:39.020Z,100197.41
2023-05-23T07:59:43.080Z,100194.47
2023-05-23T08:00:46.764Z,100195.75
2023-05-23T08:02:10.187Z,100187.47
2023-05-23T08:03:14.596Z,100189.09
2023-05-23T08:04:30.182Z,100184.75
2023-05-23T08:05:33.433Z,100183.91
2023-05-23T08:06:36.892Z,100191.59
2023-05-23T08:07:45.990Z,100193.13
2023-05-23T08:08:50.688Z,100189.63
2023-05-23T08:09:54.571Z,100191.75
2023-05-23T08:10:59.040Z,100191.63
2023-05-23T08:12:08.436Z,100187.75
2023-05-23T08:13:12.072Z,100195.72
2023-05-23T08:14:34.913Z,100197.41
2023-05-23T08:15:56.697Z,100191.19
2023-05-23T08:17:04.573Z,100201.81
2023-05-23T08:18:08.003Z,100195.31
2023-05-23T08:19:12.077Z,100200.06
2023-05-23T08:20:16.097Z,100201.19
2023-05-23T08:21:21.839Z,100191.66
2023-05-23T08:22:25.646Z,100202.50
2023-05-23T08:23:29.066Z,100199.97
2023-05-23T08:24:35.047Z,100204.16
2023-05-23T08:25:38.902Z,100201.28
2023-05-23T08:26:42.916Z,100198.81
2023-05-23T08:27:48.881Z,100198.41
2023-05-23T08:29:21.460Z,100194.75
2023-05-23T08:30:25.949Z,100198.31
2023-05-23T08:31:31.094Z,100207.13
2023-05-23T08:32:34.549Z,100191.19
2023-05-23T08:33:38.087Z,100200.31
2023-05-23T08:34:42.470Z,100201.19
2023-05-23T08:35:46.236Z,100193.47
2023-05-23T08:36:51.208Z,100201.00
2023-05-23T08:37:59.100Z,100207.06
2023-05-23T08:39:04.413Z,100202.94
2023-05-23T08:40:20.793Z,100200.31
2023-05-23T08:41:31.940Z,100196.34
2023-05-23T08:42:40.301Z,100199.25
2023-05-23T08:43:45.927Z,100195.47
2023-05-23T08:44:54.701Z,100199.50
2023-05-23T08:45:59.127Z,100205.16
2023-05-23T08:47:05.939Z,100208.22
2023-05-23T08:48:20.999Z,100210.19
2023-05-23T08:49:27.060Z,100209.94
2023-05-23T08:50:31.828Z,100212.84
2023-05-23T08:51:35.205Z,100213.75
2023-05-23T08:52:53.233Z,100211.38
2023-05-23T08:53:56.931Z,100218.78
2023-05-23T08:55:02.033Z,100219.31
2023-05-23T08:56:07.089Z,100218.97
2023-05-23T08:57:18.307Z,100215.19
2023-05-23T08:58:30.350Z,100216.53
2023-05-23T08:59:33.956Z,100216.28
2023-05-23T09:00:37.150Z,100213.41
2023-05-23T09:01:41.949Z,100219.59
2023-05-23T09:02:47.865Z,100216.63
2023-05-23T09:04:07.635Z,100211.44
2023-05-23T09:05:23.457Z,100210.38
2023-05-23T09:06:27.496Z,100218.09
2023-05-23T09:07:31.538Z,100211.47
2023-05-23T09:08:38.836Z,100207.47
2023-05-23T09:09:42.408Z,100208.44
2023-05-23T09:10:51.770Z,100202.63
2023-05-23T09:11:57.000Z,100212.91
2023-05-23T09:13:00.469Z,100208.34
2023-05-23T09:14:06.143Z,100211.66
2023-05-23T09:15:10.542Z,100206.47
2023-05-23T09:16:14.431Z,100201.72
2023-05-23T09:17:25.376Z,100201.13
2023-05-23T09:18:39.299Z,100202.16
2023-05-23T09:19:44.053Z,100202.03
2023-05-23T09:20:58.083Z,100205.94
2023-05-23T09:22:04.180Z,100202.13
2023-05-23T09:23:14.793Z,100198.72
2023-05-23T09:24:17.933Z,100200.78
2023-05-23T09:25:21.981Z,100191.38
2023-05-23T09:26:25.236Z,100202.28
2023-05-23T09:27:28.408Z,100201.25
2023-05-23T09:28:33.000Z,100210.19
2023-05-23T09:29:42.073Z,100201.28
2023-05-23T09:30:45.219Z,100204.63
2023-05-23T09:31:49.591Z,100203.31
2023-05-23T09:33:03.898Z,100202.66
2023-05-23T09:34:11.492Z,100196.22
2023-05-23T09:35:16.002Z,100195.22
2023-05-23T09:36:22.039Z,100194.78
2023-05-23T09:37:33.272Z,100198.38
2023-05-23T09:38:43.243Z,100201.75
2023-05-23T09:39:49.859Z,100202.97
2023-05-23T09:40:56.936Z,100203.72
2023-05-23T09:42:01.582Z,100198.16
2023-05-23T09:43:05.839Z,100202.88
2023-05-23T09:44:10.021Z,100201.66
2023-05-23T09:45:14.056Z,100203.00
2023-05-23T09:46:17.714Z,100203.63
2023-05-23T09:47:21.297Z,100198.00
2023-05-23T09:48:34.444Z,100199.00
2023-05-23T09:49:41.567Z,100198.53
2023-05-23T09:50:46.524Z,100202.00
2023-05-23T09:51:59.556Z,100189.53
2023-05-23T09:53:03.046Z,100199.00
2023-05-23T09:54:06.857Z,100193.97
2023-05-23T09:55:10.582Z,100191.50
2023-05-23T09:56:14.111Z,100196.06
2023-05-23T09:57:17.914Z,100193.19
2023-05-23T09:58:22.137Z,100190.03
2023-05-23T09:59:25.509Z,100189.72
2023-05-23T10:00:29.769Z,100194.75
2023-05-23T10:01:33.528Z,100190.44
2023-05-23T10:02:57.824Z,100197.34
2023-05-23T10:04:01.554Z,100196.38
2023-05-23T10:05:05.717Z,100203.16
2023-05-23T10:06:23.190Z,100196.50
2023-05-23T10:07:26.804Z,100204.84
2023-05-23T10:08:37.853Z,100205.28
2023-05-23T10:09:42.596Z,100209.31
2023-05-23T10:11:04.061Z,100211.38
2023-05-23T10:12:32.141Z,100211.91
2023-05-23T10:13:35.900Z,100209.41
2023-05-23T10:14:41.342Z,100206.91
2023-05-23T10:15:44.582Z,100205.88
2023-05-23T10:17:02.619Z,100212.66
2023-05-23T10:18:22.524Z,100210.00
2023-05-23T10:19:29.958Z,100217.06
2023-05-23T10:20:34.033Z,100215.19
2023-05-23T10:21:43.128Z,100210.09
2023-05-23T10:22:48.368Z,100212.44
2023-05-23T10:23:51.743Z,100209.88
2023-05-23T10:24:55.399Z,100210.78
2023-05-23T10:25:58.526Z,100213.88
2023-05-23T10:27:01.527Z,100218.59
2023-05-23T10:28:04.722Z,100215.59
2023-05-23T10:29:08.171Z,100210.94
2023-05-23T10:30:11.856Z,100211.44
2023-05-23T10:31:14.876Z,100208.97
2023-05-23T10:32:18.553Z,100210.75
2023-05-23T10:33:23.551Z,100212.50
2023-05-23T10:34:29.598Z,100199.28
2023-05-23T10:35:57.686Z,100200.78
2023-05-23T10:37:07.543Z,100206.13
2023-05-23T10:38:37.987Z,100204.09
2023-05-23T10:39:53.077Z,100203.59
2023-05-23T10:41:19.995Z,100208.25
2023-05-23T10:42:29.953Z,100203.78
2023-05-23T10:44:30.114Z,100215.56
2023-05-23T10:45:34.194Z,100215.09
2023-05-23T10:46:59.591Z,100210.66
2023-05-23T10:48:03.197Z,100210.56
2023-05-23T10:49:06.502Z,100217.78
2023-05-23T10:50:14.895Z,100215.34
2023-05-23T10:51:18.656Z,100212.06
2023-05-23T10:52:23.408Z,100218.34
2023-05-23T10:53:26.374Z,100213.94
2023-05-23T10:54:35.208Z,100201.78
2023-05-23T10:55:38.805Z,100202.69
2023-05-23T10:56:42.641Z,100203.53
2023-05-23T10:57:46.717Z,100207.97
2023-05-23T10:58:54.532Z,100205.28
2023-05-23T10:59:58.096Z,100196.78
2023-05-23T11:01:11.326Z,100201.03
2023-05-23T11:02:36.194Z,100203.28
2023-05-23T11:03:49.872Z,100208.91
2023-05-23T11:05:20.437Z,100201.25
2023-05-23T11:06:46.523Z,100203.69
2023-05-23T11:08:12.296Z,100186.94
2023-05-23T11:09:19.862Z,100191.09
2023-05-23T11:10:23.058Z,100191.34
2023-05-23T11:11:26.346Z,100193.94
2023-05-23T11:12:43.299Z,100200.94
2023-05-23T11:13:55.912Z,100202.28
2023-05-23T11:14:59.395Z,100203.16
2023-05-23T11:16:03.203Z,100206.28
2023-05-23T11:17:19.844Z,100200.88
2023-05-23T11:18:25.109Z,100194.50
2023-05-23T11:19:29.558Z,100198.84
2023-05-23T11:20:33.507Z,100202.69
2023-05-23T11:21:37.732Z,100199.63
2023-05-23T11:22:42.910Z,100195.97
2023-05-23T11:23:46.467Z,100196.16
2023-05-23T11:24:53.583Z,100190.97
2023-05-23T11:25:57.637Z,100203.09
2023-05-23T11:27:01.687Z,100197.88
2023-05-23T11:28:07.853Z,100192.75
2023-05-23T11:29:11.045Z,100192.53
2023-05-23T11:30:16.749Z,100193.50
2023-05-23T11:31:20.602Z,100191.22
2023-05-23T11:32:24.395Z,100195.47
2023-05-23T11:33:27.729Z,100186.16
2023-05-23T11:34:31.612Z,100192.03
2023-05-23T11:35:36.020Z,100185.53
2023-05-23T11:36:39.852Z,100193.66
2023-05-23T11:37:43.053Z,100179.19
2023-05-23T11:38:48.996Z,100184.06
2023-05-23T11:39:52.313Z,100178.88
2023-05-23T11:40:55.371Z,100176.84
2023-05-23T11:42:04.289Z,100177.44
2023-05-23T11:43:09.595Z,100187.84
2023-05-23T11:44:14.195Z,100179.84
2023-05-23T11:45:17.588Z,100178.13
2023-05-23T11:46:20.755Z,100178.25
2023-05-23T11:47:24.393Z,100174.75
2023-05-23T11:48:27.978Z,100173.56
2023-05-23T11:49:36.164Z,100166.88
2023-05-23T11:50:50.308Z,100172.59
2023-05-23T11:51:53.921Z,100173.03
2023-05-23T11:52:57.486Z,100167.69
2023-05-23T11:54:03.636Z,100161.88
2023-05-23T11:55:09.446Z,100170.28
2023-05-23T11:56:12.604Z,100167.31
2023-05-23T11:57:15.847Z,100167.75
2023-05-23T11:58:19.186Z,100174.94
2023-05-23T11:59:23.553Z,100178.09
2023-05-23T12:00:27.329Z,100170.09
2023-05-23T12:01:34.385Z,100168.47
2023-05-23T12:02:44.518Z,100171.81
2023-05-23T12:03:49.625Z,100168.72
2023-05-23T12:04:53.625Z,100166.06
2023-05-23T12:05:57.589Z,100160.13
2023-05-23T12:07:01.289Z,100164.44
2023-05-23T12:08:04.899Z,100161.19
2023-05-23T12:09:09.301Z,100168.09
2023-05-23T12:10:13.035Z,100158.25
2023-05-23T12:11:16.625Z,100153.38
2023-05-23T12:12:21.121Z,100161.22
2023-05-23T12:13:30.682Z,100164.16
2023-05-23T12:14:34.132Z,100154.94
2023-05-23T12:15:37.202Z,100154.22
2023-05-23T12:16:41.031Z,100151.94
2023-05-23T12:17:47.586Z,100147.66
2023-05-23T12:18:51.279Z,100153.13
2023-05-23T12:19:54.753Z,100150.06
2023-05-23T12:21:02.385Z,100153.75
2023-05-23T12:22:11.432Z,100146.94
2023-05-23T12:23:23.969Z,100148.13
2023-05-23T12:24:27.209Z,100147.13
2023-05-23T12:25:30.717Z,100156.53
2023-05-23T12:26:33.734Z,100145.59
2023-05-23T12:27:37.687Z,100159.41
2023-05-23T12:28:45.694Z,100151.81
2023-05-23T12:29:55.624Z,100144.09
2023-05-23T12:30:58.509Z,100153.16
2023-05-23T12:32:02.809Z,100153.81
2023-05-23T12:33:09.529Z,100155.19
2023-05-23T12:34:14.166Z,100153.34
2023-05-23T12:35:18.204Z,100149.75